sensor_id;sensor_type;location;lat;lon;timestamp;pressure;altitude;pressure_sealevel;temperature;humidity
69171;BME280;56279;47.902;12.308;2023-02-19T00:01:35;95848.53;;;10.76;72.36
69171;BME280;56279;47.902;12.308;2023-02-19T00:03:37;95851.19;;;10.76;72.30
69171;BME280;56279;47.902;12.308;2023-02-19T00:05:39;95844.31;;;10.75;72.18
69171;BME280;56279;47.902;12.308;2023-02-19T00:07:40;95842.47;;;10.75;72.17
69171;BME280;56279;47.902;12.308;2023-02-19T00:09:43;95835.34;;;10.76;72.19
69171;BME280;56279;47.902;12.308;2023-02-19T00:11:45;95841.94;;;10.73;72.17
69171;BME280;56279;47.902;12.308;2023-02-19T00:13:49;95831.63;;;10.72;72.34
69171;BME280;56279;47.902;12.308;2023-02-19T00:15:51;95822.94;;;10.66;72.70
69171;BME280;56279;47.902;12.308;2023-02-19T00:17:52;95820.53;;;10.60;72.63
69171;BME280;56279;47.902;12.308;2023-02-19T00:19:53;95828.47;;;10.55;72.89
69171;BME280;56279;47.902;12.308;2023-02-19T00:21:55;95827.41;;;10.51;73.15
69171;BME280;56279;47.902;12.308;2023-02-19T00:23:59;95828.19;;;10.46;73.49
69171;BME280;56279;47.902;12.308;2023-02-19T00:26:03;95826.09;;;10.43;73.45
69171;BME280;56279;47.902;12.308;2023-02-19T00:31:20;95821.34;;;10.35;73.24
69171;BME280;56279;47.902;12.308;2023-02-19T00:33:22;95818.16;;;10.33;73.66
69171;BME280;56279;47.902;12.308;2023-02-19T00:35:24;95814.47;;;10.29;73.45
69171;BME280;56279;47.902;12.308;2023-02-19T00:37:30;95813.91;;;10.27;73.78
69171;BME280;56279;47.902;12.308;2023-02-19T00:39:31;95812.34;;;10.26;73.95
69171;BME280;56279;47.902;12.308;2023-02-19T00:41:33;95817.09;;;10.24;73.95
69171;BME280;56279;47.902;12.308;2023-02-19T00:43:46;95806.03;;;10.22;74.31
69171;BME280;56279;47.902;12.308;2023-02-19T00:45:48;95821.28;;;10.20;74.15
69171;BME280;56279;47.902;12.308;2023-02-19T00:47:50;95814.44;;;10.19;74.29
69171;BME280;56279;47.902;12.308;2023-02-19T00:49:51;95809.44;;;10.17;74.18
69171;BME280;56279;47.902;12.308;2023-02-19T00:51:53;95807.06;;;10.16;74.37
69171;BME280;56279;47.902;12.308;2023-02-19T00:53:54;95805.50;;;10.15;74.56
69171;BME280;56279;47.902;12.308;2023-02-19T00:55:57;95800.97;;;10.15;74.31
69171;BME280;56279;47.902;12.308;2023-02-19T00:57:58;95795.72;;;10.15;74.10
69171;BME280;56279;47.902;12.308;2023-02-19T00:59:59;95804.41;;;10.16;74.23
69171;BME280;56279;47.902;12.308;2023-02-19T01:02:01;95790.44;;;10.15;74.30
69171;BME280;56279;47.902;12.308;2023-02-19T01:04:04;95791.50;;;10.14;74.49
69171;BME280;56279;47.902;12.308;2023-02-19T01:06:06;95784.38;;;10.15;74.41
69171;BME280;56279;47.902;12.308;2023-02-19T01:08:08;95791.22;;;10.16;74.20
69171;BME280;56279;47.902;12.308;2023-02-19T01:10:09;95784.63;;;10.18;74.42
69171;BME280;56279;47.902;12.308;2023-02-19T01:12:11;95785.16;;;10.20;74.23
69171;BME280;56279;47.902;12.308;2023-02-19T01:14:12;95778.84;;;10.21;74.13
69171;BME280;56279;47.902;12.308;2023-02-19T01:16:15;95778.56;;;10.23;74.03
69171;BME280;56279;47.902;12.308;2023-02-19T01:18:17;95776.47;;;10.25;73.87
69171;BME280;56279;47.902;12.308;2023-02-19T01:20:18;95781.75;;;10.25;73.87
69171;BME280;56279;47.902;12.308;2023-02-19T01:22:19;95773.31;;;10.23;73.90
69171;BME280;56279;47.902;12.308;2023-02-19T01:24:20;95764.59;;;10.22;74.09
69171;BME280;56279;47.902;12.308;2023-02-19T01:26:24;95767.50;;;10.21;73.85
69171;BME280;56279;47.902;12.308;2023-02-19T01:28:26;95767.22;;;10.22;74.07
69171;BME280;56279;47.902;12.308;2023-02-19T01:30:27;95763.28;;;10.20;73.94
69171;BME280;56279;47.902;12.308;2023-02-19T01:32:29;95753.78;;;10.19;74.07
69171;BME280;56279;47.902;12.308;2023-02-19T01:34:30;95750.63;;;10.17;73.92
69171;BME280;56279;47.902;12.308;2023-02-19T01:36:33;95755.91;;;10.17;73.68
69171;BME280;56279;47.902;12.308;2023-02-19T01:38:34;95746.41;;;10.16;73.72
69171;BME280;56279;47.902;12.308;2023-02-19T01:40:35;95744.84;;;10.15;73.80
69171;BME280;56279;47.902;12.308;2023-02-19T01:42:41;95736.13;;;10.14;73.76
69171;BME280;56279;47.902;12.308;2023-02-19T01:46:45;95739.28;;;10.16;73.48
69171;BME280;56279;47.902;12.308;2023-02-19T01:48:49;95737.44;;;10.17;73.20
69171;BME280;56279;47.902;12.308;2023-02-19T01:50:53;95738.75;;;10.19;73.42
69171;BME280;56279;47.902;12.308;2023-02-19T01:52:55;95741.66;;;10.23;72.95
69171;BME280;56279;47.902;12.308;2023-02-19T01:54:57;95736.91;;;10.25;72.79
69171;BME280;56279;47.902;12.308;2023-02-19T01:57:02;95740.06;;;10.27;72.88
69171;BME280;56279;47.902;12.308;2023-02-19T01:59:05;95728.47;;;10.28;72.42
69171;BME280;56279;47.902;12.308;2023-02-19T02:01:09;95732.69;;;10.29;72.67
69171;BME280;56279;47.902;12.308;2023-02-19T02:03:10;95729.25;;;10.28;72.04
69171;BME280;56279;47.902;12.308;2023-02-19T02:07:35;95732.94;;;10.27;72.14
69171;BME280;56279;47.902;12.308;2023-02-19T02:09:55;95720.03;;;10.26;71.66
69171;BME280;56279;47.902;12.308;2023-02-19T02:12:15;95724.50;;;10.25;72.15
69171;BME280;56279;47.902;12.308;2023-02-19T02:14:23;95723.47;;;10.26;71.98
69171;BME280;56279;47.902;12.308;2023-02-19T02:16:47;95722.66;;;10.26;71.70
69171;BME280;56279;47.902;12.308;2023-02-19T02:19:14;95718.19;;;10.26;71.96
69171;BME280;56279;47.902;12.308;2023-02-19T02:26:34;95716.31;;;10.27;71.70
69171;BME280;56279;47.902;12.308;2023-02-19T02:30:49;95722.16;;;10.29;71.91
69171;BME280;56279;47.902;12.308;2023-02-19T02:35:25;95706.31;;;10.29;71.74
69171;BME280;56279;47.902;12.308;2023-02-19T02:37:33;95710.81;;;10.28;71.63
69171;BME280;56279;47.902;12.308;2023-02-19T02:39:36;95697.84;;;10.27;71.57
69171;BME280;56279;47.902;12.308;2023-02-19T02:41:55;95704.22;;;10.26;71.76
69171;BME280;56279;47.902;12.308;2023-02-19T02:44:21;95701.28;;;10.27;71.62
69171;BME280;56279;47.902;12.308;2023-02-19T02:46:28;95695.22;;;10.27;71.85
69171;BME280;56279;47.902;12.308;2023-02-19T02:51:20;95704.22;;;10.26;71.69
69171;BME280;56279;47.902;12.308;2023-02-19T02:53:55;95694.69;;;10.25;71.88
69171;BME280;56279;47.902;12.308;2023-02-19T02:56:18;95684.69;;;10.22;72.03
69171;BME280;56279;47.902;12.308;2023-02-19T02:58:22;95693.38;;;10.22;72.11
69171;BME280;56279;47.902;12.308;2023-02-19T03:00:28;95693.66;;;10.21;72.11
69171;BME280;56279;47.902;12.308;2023-02-19T03:02:49;95684.16;;;10.20;72.15
69171;BME280;56279;47.902;12.308;2023-02-19T03:04:56;95694.97;;;10.18;72.07
69171;BME280;56279;47.902;12.308;2023-02-19T03:07:19;95679.94;;;10.19;72.20
69171;BME280;56279;47.902;12.308;2023-02-19T03:09:28;95677.59;;;10.17;72.46
69171;BME280;56279;47.902;12.308;2023-02-19T03:11:33;95669.66;;;10.17;72.58
69171;BME280;56279;47.902;12.308;2023-02-19T03:16:29;95658.31;;;10.12;72.52
69171;BME280;56279;47.902;12.308;2023-02-19T03:18:53;95674.94;;;10.12;72.48
69171;BME280;56279;47.902;12.308;2023-02-19T03:21:17;95675.16;;;10.11;72.73
69171;BME280;56279;47.902;12.308;2023-02-19T03:23:23;95652.50;;;10.10;72.77
69171;BME280;56279;47.902;12.308;2023-02-19T03:25:46;95648.03;;;10.10;72.93
69171;BME280;56279;47.902;12.308;2023-02-19T03:28:16;95643.78;;;10.09;72.79
69171;BME280;56279;47.902;12.308;2023-02-19T03:30:26;95649.88;;;10.10;72.76
69171;BME280;56279;47.902;12.308;2023-02-19T03:32:41;95653.53;;;10.09;72.65
69171;BME280;56279;47.902;12.308;2023-02-19T03:34:54;95644.06;;;10.08;72.79
69171;BME280;56279;47.902;12.308;2023-02-19T03:37:02;95650.38;;;10.07;73.07
69171;BME280;56279;47.902;12.308;2023-02-19T03:39:08;95647.75;;;10.07;72.62
69171;BME280;56279;47.902;12.308;2023-02-19T03:43:44;95653.03;;;10.07;73.20
69171;BME280;56279;47.902;12.308;2023-02-19T03:46:00;95644.31;;;10.06;72.90
69171;BME280;56279;47.902;12.308;2023-02-19T03:48:34;95665.69;;;10.05;72.94
69171;BME280;56279;47.902;12.308;2023-02-19T03:53:27;95657.25;;;10.03;73.22
69171;BME280;56279;47.902;12.308;2023-02-19T03:58:08;95668.31;;;10.00;73.38
69171;BME280;56279;47.902;12.308;2023-02-19T04:02:47;95686.25;;;10.03;73.56
69171;BME280;56279;47.902;12.308;2023-02-19T04:04:55;95675.72;;;10.03;73.62
69171;BME280;56279;47.902;12.308;2023-02-19T04:06:59;95678.06;;;10.04;73.70
69171;BME280;56279;47.902;12.308;2023-02-19T04:09:06;95706.28;;;10.04;73.95
69171;BME280;56279;47.902;12.308;2023-02-19T04:11:10;95703.63;;;10.04;74.41
69171;BME280;56279;47.902;12.308;2023-02-19T04:13:18;95697.03;;;10.01;74.89
69171;BME280;56279;47.902;12.308;2023-02-19T04:15:26;95712.63;;;9.98;75.15
69171;BME280;56279;47.902;12.308;2023-02-19T04:17:37;95710.75;;;9.93;75.85
69171;BME280;56279;47.902;12.308;2023-02-19T04:19:41;95726.31;;;9.90;75.81
69171;BME280;56279;47.902;12.308;2023-02-19T04:21:43;95722.59;;;9.86;76.48
69171;BME280;56279;47.902;12.308;2023-02-19T04:23:45;95728.66;;;9.81;76.93
69171;BME280;56279;47.902;12.308;2023-02-19T04:25:53;95728.66;;;9.76;77.21
69171;BME280;56279;47.902;12.308;2023-02-19T04:27:57;95693.34;;;9.72;78.12
69171;BME280;56279;47.902;12.308;2023-02-19T04:29:59;95710.44;;;9.64;78.10
69171;BME280;56279;47.902;12.308;2023-02-19T04:32:01;95720.97;;;9.59;78.75
69171;BME280;56279;47.902;12.308;2023-02-19T04:34:02;95740.47;;;9.53;79.15
69171;BME280;56279;47.902;12.308;2023-02-19T04:36:05;95730.44;;;9.50;79.41
69171;BME280;56279;47.902;12.308;2023-02-19T04:38:07;95727.78;;;9.45;80.15
69171;BME280;56279;47.902;12.308;2023-02-19T04:40:09;95718.31;;;9.39;80.33
69171;BME280;56279;47.902;12.308;2023-02-19T04:42:10;95712.50;;;9.32;80.64
69171;BME280;56279;47.902;12.308;2023-02-19T04:44:11;95709.03;;;9.27;81.11
69171;BME280;56279;47.902;12.308;2023-02-19T04:46:12;95708.78;;;9.23;81.22
69171;BME280;56279;47.902;12.308;2023-02-19T04:48:14;95707.72;;;9.19;81.69
69171;BME280;56279;47.902;12.308;2023-02-19T04:50:15;95705.59;;;9.16;82.06
69171;BME280;56279;47.902;12.308;2023-02-19T04:52:16;95706.09;;;9.13;82.70
69171;BME280;56279;47.902;12.308;2023-02-19T04:54:18;95712.94;;;9.09;83.06
69171;BME280;56279;47.902;12.308;2023-02-19T04:56:19;95700.53;;;9.04;82.95
69171;BME280;56279;47.902;12.308;2023-02-19T04:58:20;95688.69;;;9.02;82.86
69171;BME280;56279;47.902;12.308;2023-02-19T05:00:22;95678.66;;;8.99;83.69
69171;BME280;56279;47.902;12.308;2023-02-19T05:02:23;95688.66;;;8.97;83.69
69171;BME280;56279;47.902;12.308;2023-02-19T05:04:25;95676.00;;;8.94;83.70
69171;BME280;56279;47.902;12.308;2023-02-19T05:06:26;95674.44;;;8.93;83.74
69171;BME280;56279;47.902;12.308;2023-02-19T05:08:28;95669.16;;;8.93;83.91
69171;BME280;56279;47.902;12.308;2023-02-19T05:10:29;95685.47;;;8.90;83.96
69171;BME280;56279;47.902;12.308;2023-02-19T05:12:31;95686.53;;;8.89;84.34
69171;BME280;56279;47.902;12.308;2023-02-19T05:14:32;95713.34;;;8.86;84.19
69171;BME280;56279;47.902;12.308;2023-02-19T05:16:33;95711.22;;;8.83;84.82
69171;BME280;56279;47.902;12.308;2023-02-19T05:18:34;95718.06;;;8.79;84.87
69171;BME280;56279;47.902;12.308;2023-02-19T05:20:36;95708.84;;;8.76;84.95
69171;BME280;56279;47.902;12.308;2023-02-19T05:22:56;95697.75;;;8.69;85.15
69171;BME280;56279;47.902;12.308;2023-02-19T05:24:57;95704.03;;;8.68;85.45
69171;BME280;56279;47.902;12.308;2023-02-19T05:26:58;95708.75;;;8.66;85.11
69171;BME280;56279;47.902;12.308;2023-02-19T05:28:59;95729.03;;;8.66;85.62
69171;BME280;56279;47.902;12.308;2023-02-19T05:31:07;95725.09;;;8.68;85.15
69171;BME280;56279;47.902;12.308;2023-02-19T05:33:09;95716.41;;;8.68;85.41
69171;BME280;56279;47.902;12.308;2023-02-19T05:35:10;95717.47;;;8.67;85.29
69171;BME280;56279;47.902;12.308;2023-02-19T05:37:11;95730.59;;;8.67;85.14
69171;BME280;56279;47.902;12.308;2023-02-19T05:39:13;95726.94;;;8.68;84.83
69171;BME280;56279;47.902;12.308;2023-02-19T05:41:17;95716.91;;;8.65;85.43
69171;BME280;56279;47.902;12.308;2023-02-19T05:43:19;95730.06;;;8.65;85.28
69171;BME280;56279;47.902;12.308;2023-02-19T05:45:20;95737.66;;;8.61;85.28
69171;BME280;56279;47.902;12.308;2023-02-19T05:47:21;95734.50;;;8.59;85.38
69171;BME280;56279;47.902;12.308;2023-02-19T05:49:22;95740.03;;;8.58;85.51
69171;BME280;56279;47.902;12.308;2023-02-19T05:51:25;95744.50;;;8.57;85.61
69171;BME280;56279;47.902;12.308;2023-02-19T05:53:27;95757.09;;;8.55;85.72
69171;BME280;56279;47.902;12.308;2023-02-19T05:55:28;95748.69;;;8.53;86.20
69171;BME280;56279;47.902;12.308;2023-02-19T05:57:30;95754.22;;;8.52;85.72
69171;BME280;56279;47.902;12.308;2023-02-19T05:59:31;95755.25;;;8.51;86.25
69171;BME280;56279;47.902;12.308;2023-02-19T06:01:33;95737.84;;;8.50;85.72
69171;BME280;56279;47.902;12.308;2023-02-19T06:03:35;95759.97;;;8.49;86.27
69171;BME280;56279;47.902;12.308;2023-02-19T06:05:37;95765.22;;;8.49;86.49
69171;BME280;56279;47.902;12.308;2023-02-19T06:07:38;95763.63;;;8.48;86.32
69171;BME280;56279;47.902;12.308;2023-02-19T06:09:40;95752.31;;;8.47;86.33
69171;BME280;56279;47.902;12.308;2023-02-19T06:11:41;95756.00;;;8.46;86.06
69171;BME280;56279;47.902;12.308;2023-02-19T06:13:44;95750.72;;;8.46;86.10
69171;BME280;56279;47.902;12.308;2023-02-19T06:15:45;95755.19;;;8.46;86.33
69171;BME280;56279;47.902;12.308;2023-02-19T06:17:47;95750.72;;;8.46;85.90
69171;BME280;56279;47.902;12.308;2023-02-19T06:19:48;95765.47;;;8.47;86.00
69171;BME280;56279;47.902;12.308;2023-02-19T06:21:49;95774.16;;;8.48;86.13
69171;BME280;56279;47.902;12.308;2023-02-19T06:23:51;95768.09;;;8.47;86.22
69171;BME280;56279;47.902;12.308;2023-02-19T06:25:52;95766.78;;;8.45;86.17
69171;BME280;56279;47.902;12.308;2023-02-19T06:27:53;95780.69;;;8.45;86.52
69171;BME280;56279;47.902;12.308;2023-02-19T06:29:54;95774.16;;;8.48;86.46
69171;BME280;56279;47.902;12.308;2023-02-19T06:31:56;95776.50;;;8.44;86.78
69171;BME280;56279;47.902;12.308;2023-02-19T06:33:57;95754.13;;;8.42;86.90
69171;BME280;56279;47.902;12.308;2023-02-19T06:36:00;95772.53;;;8.42;87.10
69171;BME280;56279;47.902;12.308;2023-02-19T06:38:02;95773.34;;;8.42;87.18
69171;BME280;56279;47.902;12.308;2023-02-19T06:40:04;95774.66;;;8.45;86.92
69171;BME280;56279;47.902;12.308;2023-02-19T06:42:06;95784.38;;;8.44;86.32
69171;BME280;56279;47.902;12.308;2023-02-19T06:44:07;95785.72;;;8.47;86.49
69171;BME280;56279;47.902;12.308;2023-02-19T06:46:16;95783.09;;;8.47;86.27
69171;BME280;56279;47.902;12.308;2023-02-19T06:48:17;95775.75;;;8.49;86.23
69171;BME280;56279;47.902;12.308;2023-02-19T06:50:18;95803.63;;;8.50;86.12
69171;BME280;56279;47.902;12.308;2023-02-19T06:52:19;95778.91;;;8.51;86.42
69171;BME280;56279;47.902;12.308;2023-02-19T06:54:21;95798.34;;;8.50;86.23
69171;BME280;56279;47.902;12.308;2023-02-19T06:56:33;95803.59;;;8.45;86.70
69171;BME280;56279;47.902;12.308;2023-02-19T06:58:35;95805.66;;;8.43;86.83
69171;BME280;56279;47.902;12.308;2023-02-19T07:00:36;95826.91;;;8.36;87.72
69171;BME280;56279;47.902;12.308;2023-02-19T07:02:38;95815.56;;;8.30;88.11
69171;BME280;56279;47.902;12.308;2023-02-19T07:04:39;95815.25;;;8.27;88.35
69171;BME280;56279;47.902;12.308;2023-02-19T07:06:40;95818.34;;;8.24;88.56
69171;BME280;56279;47.902;12.308;2023-02-19T07:08:41;95818.63;;;8.22;88.79
69171;BME280;56279;47.902;12.308;2023-02-19T07:10:53;95817.28;;;8.20;88.62
69171;BME280;56279;47.902;12.308;2023-02-19T07:12:55;95824.91;;;8.21;88.82
69171;BME280;56279;47.902;12.308;2023-02-19T07:14:56;95819.91;;;8.20;88.92
69171;BME280;56279;47.902;12.308;2023-02-19T07:16:57;95834.38;;;8.22;89.27
69171;BME280;56279;47.902;12.308;2023-02-19T07:18:59;95826.25;;;8.24;89.04
69171;BME280;56279;47.902;12.308;2023-02-19T07:21:06;95841.00;;;8.25;88.76
69171;BME280;56279;47.902;12.308;2023-02-19T07:23:08;95840.28;;;8.29;88.62
69171;BME280;56279;47.902;12.308;2023-02-19T07:25:09;95835.56;;;8.31;88.03
69171;BME280;56279;47.902;12.308;2023-02-19T07:27:10;95842.94;;;8.34;88.29
69171;BME280;56279;47.902;12.308;2023-02-19T07:29:11;95837.97;;;8.38;87.98
69171;BME280;56279;47.902;12.308;2023-02-19T07:31:14;95850.88;;;8.40;87.67
69171;BME280;56279;47.902;12.308;2023-02-19T07:33:16;95846.16;;;8.42;87.86
69171;BME280;56279;47.902;12.308;2023-02-19T07:35:17;95868.56;;;8.44;87.87
69171;BME280;56279;47.902;12.308;2023-02-19T07:37:18;95856.75;;;8.47;87.53
69171;BME280;56279;47.902;12.308;2023-02-19T07:39:19;95863.06;;;8.51;87.59
69171;BME280;56279;47.902;12.308;2023-02-19T07:41:22;95858.09;;;8.54;87.46
69171;BME280;56279;47.902;12.308;2023-02-19T07:43:25;95867.31;;;8.57;87.49
69171;BME280;56279;47.902;12.308;2023-02-19T07:45:28;95853.94;;;8.58;87.41
69171;BME280;56279;47.902;12.308;2023-02-19T07:47:29;95866.84;;;8.60;87.17
69171;BME280;56279;47.902;12.308;2023-02-19T07:49:30;95862.91;;;8.62;86.71
69171;BME280;56279;47.902;12.308;2023-02-19T07:51:32;95861.63;;;8.65;86.50
69171;BME280;56279;47.902;12.308;2023-02-19T07:53:34;95864.78;;;8.67;86.65
69171;BME280;56279;47.902;12.308;2023-02-19T07:55:36;95855.88;;;8.68;86.55
69171;BME280;56279;47.902;12.308;2023-02-19T07:57:37;95851.94;;;8.70;86.83
69171;BME280;56279;47.902;12.308;2023-02-19T07:59:38;95858.28;;;8.74;86.34
69171;BME280;56279;47.902;12.308;2023-02-19T08:01:40;95860.41;;;8.77;86.34
69171;BME280;56279;47.902;12.308;2023-02-19T08:04:00;95858.06;;;8.81;86.05
69171;BME280;56279;47.902;12.308;2023-02-19T08:06:01;95856.50;;;8.85;85.52
69171;BME280;56279;47.902;12.308;2023-02-19T08:08:08;95843.09;;;8.86;85.60
69171;BME280;56279;47.902;12.308;2023-02-19T08:10:09;95851.00;;;8.91;85.25
69171;BME280;56279;47.902;12.308;2023-02-19T08:12:29;95851.84;;;8.97;85.22
69171;BME280;56279;47.902;12.308;2023-02-19T08:14:49;95862.97;;;9.04;85.15
69171;BME280;56279;47.902;12.308;2023-02-19T08:16:51;95849.28;;;9.07;84.77
69171;BME280;56279;47.902;12.308;2023-02-19T08:18:52;95859.59;;;9.14;84.12
69171;BME280;56279;47.902;12.308;2023-02-19T08:20:54;95865.69;;;9.19;83.57
69171;BME280;56279;47.902;12.308;2023-02-19T08:22:56;95864.69;;;9.25;83.39
69171;BME280;56279;47.902;12.308;2023-02-19T08:24:57;95860.47;;;9.29;83.10
69171;BME280;56279;47.902;12.308;2023-02-19T08:26:58;95873.19;;;9.37;83.05
69171;BME280;56279;47.902;12.308;2023-02-19T08:29:02;95870.03;;;9.45;82.55
69171;BME280;56279;47.902;12.308;2023-02-19T08:31:05;95868.25;;;9.51;82.60
69171;BME280;56279;47.902;12.308;2023-02-19T08:33:07;95870.38;;;9.54;81.83
69171;BME280;56279;47.902;12.308;2023-02-19T08:35:09;95856.94;;;9.55;81.74
69171;BME280;56279;47.902;12.308;2023-02-19T08:37:10;95876.72;;;9.58;81.47
69171;BME280;56279;47.902;12.308;2023-02-19T08:39:11;95869.34;;;9.65;81.30
69171;BME280;56279;47.902;12.308;2023-02-19T08:41:16;95874.38;;;9.71;80.87
69171;BME280;56279;47.902;12.308;2023-02-19T08:43:18;95884.16;;;9.76;80.50
69171;BME280;56279;47.902;12.308;2023-02-19T08:45:19;95882.63;;;9.80;80.40
69171;BME280;56279;47.902;12.308;2023-02-19T08:47:21;95886.56;;;9.83;80.07
69171;BME280;56279;47.902;12.308;2023-02-19T08:49:25;95885.78;;;9.87;80.25
69171;BME280;56279;47.902;12.308;2023-02-19T08:51:26;95894.78;;;9.91;79.97
69171;BME280;56279;47.902;12.308;2023-02-19T08:53:28;95895.00;;;9.90;80.02
69171;BME280;56279;47.902;12.308;2023-02-19T08:55:30;95893.19;;;9.90;79.60
69171;BME280;56279;47.902;12.308;2023-02-19T08:57:34;95890.31;;;9.92;79.56
69171;BME280;56279;47.902;12.308;2023-02-19T08:59:37;95898.47;;;9.95;79.66
69171;BME280;56279;47.902;12.308;2023-02-19T09:01:39;95890.59;;;10.00;79.56
69171;BME280;56279;47.902;12.308;2023-02-19T09:03:40;95895.34;;;10.08;79.31
69171;BME280;56279;47.902;12.308;2023-02-19T09:05:42;95893.28;;;10.15;78.54
69171;BME280;56279;47.902;12.308;2023-02-19T09:07:46;95885.94;;;10.22;78.29
69171;BME280;56279;47.902;12.308;2023-02-19T09:09:48;95901.00;;;10.32;78.16
69171;BME280;56279;47.902;12.308;2023-02-19T09:11:49;95888.31;;;10.34;77.97
69171;BME280;56279;47.902;12.308;2023-02-19T09:13:50;95879.38;;;10.35;77.71
69171;BME280;56279;47.902;12.308;2023-02-19T09:15:52;95884.91;;;10.38;77.65
69171;BME280;56279;47.902;12.308;2023-02-19T09:17:53;95888.88;;;10.41;77.63
69171;BME280;56279;47.902;12.308;2023-02-19T09:19:54;95879.13;;;10.47;77.36
69171;BME280;56279;47.902;12.308;2023-02-19T09:21:55;95891.00;;;10.49;77.08
69171;BME280;56279;47.902;12.308;2023-02-19T09:23:57;95892.59;;;10.50;76.86
69171;BME280;56279;47.902;12.308;2023-02-19T09:25:59;95886.78;;;10.53;76.58
69171;BME280;56279;47.902;12.308;2023-02-19T09:28:00;95893.91;;;10.58;76.55
69171;BME280;56279;47.902;12.308;2023-02-19T09:30:02;95892.88;;;10.59;76.11
69171;BME280;56279;47.902;12.308;2023-02-19T09:32:04;95901.31;;;10.61;76.19
69171;BME280;56279;47.902;12.308;2023-02-19T09:34:05;95882.31;;;10.59;76.05
69171;BME280;56279;47.902;12.308;2023-02-19T09:36:07;95889.69;;;10.57;76.09
69171;BME280;56279;47.902;12.308;2023-02-19T09:38:08;95889.44;;;10.58;76.14
69171;BME280;56279;47.902;12.308;2023-02-19T09:40:11;95903.44;;;10.64;75.99
69171;BME280;56279;47.902;12.308;2023-02-19T09:42:19;95908.16;;;10.67;75.58
69171;BME280;56279;47.902;12.308;2023-02-19T09:44:31;95902.13;;;10.66;76.21
69171;BME280;56279;47.902;12.308;2023-02-19T09:46:45;95896.31;;;10.59;76.83
69171;BME280;56279;47.902;12.308;2023-02-19T09:48:47;95904.44;;;10.53;77.28
69171;BME280;56279;47.902;12.308;2023-02-19T09:50:49;95911.28;;;10.38;77.97
69171;BME280;56279;47.902;12.308;2023-02-19T09:52:56;95905.47;;;10.26;78.58
69171;BME280;56279;47.902;12.308;2023-02-19T09:55:04;95902.50;;;10.13;79.45
69171;BME280;56279;47.902;12.308;2023-02-19T09:57:15;95907.72;;;9.98;80.68
69171;BME280;56279;47.902;12.308;2023-02-19T09:59:39;95907.66;;;9.78;81.14
69171;BME280;56279;47.902;12.308;2023-02-19T10:01:41;95907.28;;;9.64;81.64
69171;BME280;56279;47.902;12.308;2023-02-19T10:03:45;95929.88;;;9.50;82.11
69171;BME280;56279;47.902;12.308;2023-02-19T10:05:48;95923.19;;;9.32;83.18
69171;BME280;56279;47.902;12.308;2023-02-19T10:07:51;95925.97;;;9.16;84.01
69171;BME280;56279;47.902;12.308;2023-02-19T10:09:57;95939.78;;;8.96;84.59
69171;BME280;56279;47.902;12.308;2023-02-19T10:11:59;95944.25;;;8.69;85.47
69171;BME280;56279;47.902;12.308;2023-02-19T10:14:03;95926.16;;;8.46;86.85
69171;BME280;56279;47.902;12.308;2023-02-19T10:16:15;95962.50;;;8.27;87.02
69171;BME280;56279;47.902;12.308;2023-02-19T10:18:20;95961.03;;;8.14;87.95
69171;BME280;56279;47.902;12.308;2023-02-19T10:20:23;95953.84;;;8.10;88.47
69171;BME280;56279;47.902;12.308;2023-02-19T10:22:28;95961.44;;;8.06;88.57
69171;BME280;56279;47.902;12.308;2023-02-19T10:24:30;95963.00;;;8.02;88.88
69171;BME280;56279;47.902;12.308;2023-02-19T10:26:32;95958.75;;;8.01;89.51
69171;BME280;56279;47.902;12.308;2023-02-19T10:28:36;95971.41;;;8.04;89.25
69171;BME280;56279;47.902;12.308;2023-02-19T10:30:38;95970.63;;;8.04;89.31
69171;BME280;56279;47.902;12.308;2023-02-19T10:33:01;95966.38;;;8.03;89.29
69171;BME280;56279;47.902;12.308;2023-02-19T10:35:10;95971.16;;;8.06;89.66
69171;BME280;56279;47.902;12.308;2023-02-19T10:37:14;95972.84;;;8.12;89.86
69171;BME280;56279;47.902;12.308;2023-02-19T10:39:42;95979.72;;;8.18;89.08
69171;BME280;56279;47.902;12.308;2023-02-19T10:41:44;95977.97;;;8.23;89.38
69171;BME280;56279;47.902;12.308;2023-02-19T10:44:06;95979.53;;;8.24;89.51
69171;BME280;56279;47.902;12.308;2023-02-19T10:46:27;95988.00;;;8.26;89.22
69171;BME280;56279;47.902;12.308;2023-02-19T10:48:37;95992.69;;;8.24;89.62
69171;BME280;56279;47.902;12.308;2023-02-19T10:50:40;95990.06;;;8.24;89.83
69171;BME280;56279;47.902;12.308;2023-02-19T10:52:51;95999.00;;;8.23;89.73
69171;BME280;56279;47.902;12.308;2023-02-19T10:55:23;95993.75;;;8.23;90.08
69171;BME280;56279;47.902;12.308;2023-02-19T10:57:28;95991.97;;;8.29;89.90
69171;BME280;56279;47.902;12.308;2023-02-19T10:59:30;95998.34;;;8.33;90.27
69171;BME280;56279;47.902;12.308;2023-02-19T11:01:31;95992.59;;;8.36;90.09
69171;BME280;56279;47.902;12.308;2023-02-19T11:03:32;95992.91;;;8.40;90.32
69171;BME280;56279;47.902;12.308;2023-02-19T11:05:35;95999.25;;;8.44;89.97
69171;BME280;56279;47.902;12.308;2023-02-19T11:07:43;96005.31;;;8.44;90.46
69171;BME280;56279;47.902;12.308;2023-02-19T11:09:47;95991.38;;;8.44;90.49
69171;BME280;56279;47.902;12.308;2023-02-19T11:11:51;95994.06;;;8.49;91.12
69171;BME280;56279;47.902;12.308;2023-02-19T11:13:55;95988.34;;;8.57;90.98
69171;BME280;56279;47.902;12.308;2023-02-19T11:15:58;95973.47;;;8.67;90.73
69171;BME280;56279;47.902;12.308;2023-02-19T11:20:13;95976.81;;;8.89;89.74
69171;BME280;56279;47.902;12.308;2023-02-19T11:22:36;95977.13;;;8.93;89.61
69171;BME280;56279;47.902;12.308;2023-02-19T11:24:38;95971.13;;;8.97;89.27
69171;BME280;56279;47.902;12.308;2023-02-19T11:26:40;95977.75;;;9.05;89.46
69171;BME280;56279;47.902;12.308;2023-02-19T11:28:42;95972.03;;;9.13;88.86
69171;BME280;56279;47.902;12.308;2023-02-19T11:30:45;95975.78;;;9.22;88.72
69171;BME280;56279;47.902;12.308;2023-02-19T11:32:47;95977.16;;;9.30;88.58